Terminal Aerodrome Forecast
Issued by NWS

Home | Current Version | Previous Version | Text Only | Print | Product List | Glossary On
Versions: 1 2 3 4 5 6 7 8 9 10 11 12 13 14 15
000
FTAK31 PAJN 280534
TAFASI
TAF
PASI 280534Z 2806/2906 33004KT P6SM FEW021 BKN030 BKN050
      TEMPO 2806/2810 BKN020 OVC030
     FM281000 VRB03KT P6SM BKN015 OVC030
     FM281800 24005KT P6SM BKN030 OVC050
     FM290000 21005KT P6SM SCT030 OVC050=

USA.gov is the U.S. government's official web portal to all federal, state and local government web resources and services.